createdAt,value
2017-04-13T00:00:20.351Z,24.00
2017-04-13T00:01:21.119Z,26.00
2017-04-13T00:02:21.888Z,24.00
2017-04-13T00:03:22.653Z,27.00
2017-04-13T00:04:23.676Z,28.00
2017-04-13T00:05:24.443Z,29.00
2017-04-13T00:06:25.209Z,28.00
2017-04-13T00:07:25.980Z,25.00
2017-04-13T00:08:26.747Z,26.00
2017-04-13T00:09:27.766Z,22.00
2017-04-13T00:10:28.533Z,22.00
2017-04-13T00:11:29.303Z,21.00
2017-04-13T00:12:30.071Z,25.00
2017-04-13T00:13:30.841Z,26.00
2017-04-13T00:14:31.859Z,23.00
2017-04-13T00:15:32.623Z,24.00
2017-04-13T00:16:33.393Z,23.00
2017-04-13T00:17:34.160Z,24.00
2017-04-13T00:18:34.932Z,24.00
2017-04-13T00:19:35.952Z,25.00
2017-04-13T00:20:36.724Z,25.00
2017-04-13T00:21:37.491Z,29.00
2017-04-13T00:22:38.262Z,27.00
2017-04-13T00:23:39.028Z,25.00
2017-04-13T00:24:40.049Z,28.00
2017-04-13T00:25:40.815Z,24.00
2017-04-13T00:26:41.587Z,28.00
2017-04-13T00:27:42.353Z,27.00
2017-04-13T00:28:43.120Z,27.00
2017-04-13T00:29:44.139Z,28.00
2017-04-13T00:30:44.909Z,22.00
2017-04-13T00:31:45.680Z,23.00
2017-04-13T00:32:46.444Z,25.00
2017-04-13T00:33:47.212Z,25.00
2017-04-13T00:34:48.233Z,27.00
2017-04-13T00:35:49.002Z,23.00
2017-04-13T00:36:49.766Z,23.00
2017-04-13T00:37:50.538Z,28.00
2017-04-13T00:38:51.310Z,25.00
2017-04-13T00:39:52.326Z,25.00
2017-04-13T00:40:53.094Z,25.00
2017-04-13T00:41:53.861Z,21.00
2017-04-13T00:42:54.634Z,27.00
2017-04-13T00:43:55.398Z,24.00
2017-04-13T00:44:56.415Z,25.00
2017-04-13T00:45:57.187Z,25.00
2017-04-13T00:46:57.956Z,24.00
2017-04-13T00:47:58.720Z,23.00
2017-04-13T00:48:59.493Z,25.00
2017-04-13T00:50:00.507Z,23.00
2017-04-13T00:51:01.279Z,24.00
2017-04-13T00:52:02.044Z,25.00
2017-04-13T00:53:02.814Z,23.00
2017-04-13T00:54:03.581Z,25.00
2017-04-13T00:55:04.565Z,21.00
2017-04-13T00:56:05.332Z,25.00
2017-04-13T00:57:06.100Z,24.00
2017-04-13T00:58:06.866Z,28.00
2017-04-13T00:59:07.635Z,26.00
2017-04-13T01:00:08.649Z,29.00
2017-04-13T01:01:09.418Z,25.00
2017-04-13T01:02:10.184Z,24.00
2017-04-13T01:03:10.962Z,24.00
2017-04-13T01:04:11.722Z,23.00
2017-04-13T01:05:12.744Z,23.00
2017-04-13T01:06:13.512Z,24.00
2017-04-13T01:07:14.282Z,28.00
2017-04-13T01:08:15.047Z,24.00
2017-04-13T01:09:15.814Z,24.00
2017-04-13T01:10:16.834Z,23.00
2017-04-13T01:11:17.600Z,28.00
2017-04-13T01:12:18.366Z,28.00
2017-04-13T01:13:19.132Z,22.00
2017-04-13T01:14:19.902Z,24.00
2017-04-13T01:15:20.919Z,24.00
2017-04-13T01:16:21.685Z,25.00
2017-04-13T01:17:22.452Z,26.00
2017-04-13T01:18:23.219Z,29.00
2017-04-13T01:19:23.987Z,28.00
2017-04-13T01:20:25.004Z,25.00
2017-04-13T01:21:25.777Z,28.00
2017-04-13T01:22:26.542Z,26.00
2017-04-13T01:23:27.308Z,27.00
2017-04-13T01:24:28.079Z,28.00
2017-04-13T01:25:29.146Z,25.00
2017-04-13T01:26:29.911Z,26.00
2017-04-13T01:27:30.681Z,28.00
2017-04-13T01:28:31.448Z,28.00
2017-04-13T01:29:32.219Z,25.00
2017-04-13T01:30:33.237Z,23.00
2017-04-13T01:31:34.004Z,27.00
2017-04-13T01:32:34.772Z,27.00
2017-04-13T01:33:35.538Z,28.00
2017-04-13T01:34:36.308Z,25.00
2017-04-13T01:35:37.514Z,27.00
2017-04-13T01:36:38.278Z,28.00
2017-04-13T01:37:39.048Z,24.00
2017-04-13T01:38:39.815Z,24.00
2017-04-13T01:39:40.581Z,26.00
2017-04-13T01:40:41.600Z,25.00
2017-04-13T01:41:42.371Z,27.00
2017-04-13T01:42:43.140Z,23.00
2017-04-13T01:43:43.905Z,30.00
2017-04-13T01:44:44.675Z,25.00
2017-04-13T01:45:45.693Z,29.00
2017-04-13T01:46:46.464Z,26.00
2017-04-13T01:47:47.230Z,27.00
2017-04-13T01:48:47.998Z,28.00
2017-04-13T01:49:48.768Z,24.00
2017-04-13T01:50:49.786Z,28.00
2017-04-13T01:51:50.552Z,24.00
2017-04-13T01:52:51.322Z,25.00
2017-04-13T01:53:52.097Z,26.00
2017-04-13T01:54:52.857Z,26.00
2017-04-13T01:55:53.878Z,29.00
2017-04-13T01:56:54.643Z,24.00
2017-04-13T01:57:55.414Z,22.00
2017-04-13T01:58:56.223Z,25.00
2017-04-13T01:59:56.952Z,25.00
2017-04-13T02:00:57.971Z,26.00
2017-04-13T02:01:58.736Z,22.00
2017-04-13T02:02:59.503Z,25.00
2017-04-13T02:04:00.278Z,26.00
2017-04-13T02:05:01.045Z,25.00
2017-04-13T02:06:02.066Z,27.00
2017-04-13T02:07:02.833Z,27.00
2017-04-13T02:08:03.599Z,27.00
2017-04-13T02:09:04.366Z,25.00
2017-04-13T02:10:05.135Z,28.00
2017-04-13T02:11:06.154Z,25.00
2017-04-13T02:12:06.919Z,21.00
2017-04-13T02:13:07.685Z,22.00
2017-04-13T02:14:08.459Z,26.00
2017-04-13T02:15:09.222Z,26.00
2017-04-13T02:16:10.244Z,21.00
2017-04-13T02:17:11.007Z,26.00
2017-04-13T02:18:11.782Z,25.00
2017-04-13T02:19:12.543Z,27.00
2017-04-13T02:20:13.310Z,25.00
2017-04-13T02:21:14.331Z,25.00
2017-04-13T02:22:15.101Z,24.00
2017-04-13T02:23:15.869Z,22.00
2017-04-13T02:24:16.636Z,24.00
2017-04-13T02:25:17.406Z,23.00
2017-04-13T02:26:18.425Z,28.00
2017-04-13T02:27:19.190Z,22.00
2017-04-13T02:28:19.959Z,24.00
2017-04-13T02:29:20.726Z,24.00
2017-04-13T02:30:21.495Z,23.00
2017-04-13T02:31:22.514Z,26.00
2017-04-13T02:32:23.284Z,27.00
2017-04-13T02:33:24.050Z,21.00
2017-04-13T02:34:24.820Z,23.00
2017-04-13T02:35:25.589Z,26.00
2017-04-13T02:36:26.606Z,26.00
2017-04-13T02:37:27.373Z,22.00
2017-04-13T02:38:28.141Z,24.00
2017-04-13T02:39:28.908Z,28.00
2017-04-13T02:40:29.681Z,24.00
2017-04-13T02:41:30.698Z,23.00
2017-04-13T02:42:31.465Z,20.00
2017-04-13T02:43:32.232Z,25.00
2017-04-13T02:44:33.003Z,19.00
2017-04-13T02:45:33.770Z,24.00
2017-04-13T02:46:34.786Z,21.00
2017-04-13T02:47:35.557Z,20.00
2017-04-13T02:48:36.327Z,22.00
2017-04-13T02:49:37.093Z,23.00
2017-04-13T02:50:37.864Z,21.00
2017-04-13T02:51:38.881Z,21.00
2017-04-13T02:52:39.650Z,21.00
2017-04-13T02:53:40.420Z,21.00
2017-04-13T02:54:41.190Z,21.00
2017-04-13T02:55:41.958Z,18.00
2017-04-13T02:56:42.973Z,19.00
2017-04-13T02:57:43.743Z,19.00
2017-04-13T02:58:44.512Z,20.00
2017-04-13T02:59:45.286Z,20.00
2017-04-13T03:00:46.050Z,21.00
2017-04-13T03:01:47.067Z,20.00
2017-04-13T03:02:47.834Z,22.00
2017-04-13T03:03:48.602Z,20.00
2017-04-13T03:04:49.369Z,21.00
2017-04-13T03:05:50.136Z,19.00
2017-04-13T03:06:51.150Z,21.00
2017-04-13T03:07:51.918Z,16.00
2017-04-13T03:08:52.689Z,21.00
2017-04-13T03:09:53.454Z,20.00
2017-04-13T03:10:54.223Z,18.00
2017-04-13T03:11:55.244Z,19.00
2017-04-13T03:12:56.012Z,21.00
2017-04-13T03:13:56.781Z,21.00
2017-04-13T03:14:57.546Z,23.00
2017-04-13T03:15:58.313Z,22.00
2017-04-13T03:16:59.330Z,20.00
2017-04-13T03:18:00.098Z,20.00
2017-04-13T03:19:00.866Z,22.00
2017-04-13T03:20:01.632Z,23.00
2017-04-13T03:21:02.406Z,21.00
2017-04-13T03:22:03.424Z,20.00
2017-04-13T03:23:04.189Z,19.00
2017-04-13T03:24:05.040Z,21.00
2017-04-13T03:25:06.024Z,23.00
2017-04-13T03:26:06.795Z,21.00
2017-04-13T03:27:07.821Z,21.00
2017-04-13T03:28:08.573Z,21.00
2017-04-13T03:29:09.344Z,21.00
2017-04-13T03:30:10.110Z,20.00
2017-04-13T03:31:10.878Z,23.00
2017-04-13T03:32:11.898Z,22.00
2017-04-13T03:33:12.667Z,25.00
2017-04-13T03:34:13.620Z,22.00
2017-04-13T03:35:14.388Z,25.00
2017-04-13T03:36:15.155Z,23.00
2017-04-13T03:37:16.177Z,21.00
2017-04-13T03:38:16.942Z,23.00
2017-04-13T03:39:17.710Z,24.00
2017-04-13T03:40:18.480Z,22.00
2017-04-13T03:41:19.246Z,24.00
2017-04-13T03:42:20.265Z,23.00
2017-04-13T03:43:21.031Z,19.00
2017-04-13T03:44:21.803Z,21.00
2017-04-13T03:45:22.572Z,22.00
2017-04-13T03:46:23.525Z,22.00
2017-04-13T03:47:24.544Z,21.00
2017-04-13T03:48:25.308Z,22.00
2017-04-13T03:49:26.076Z,23.00
2017-04-13T03:50:26.843Z,25.00
2017-04-13T03:51:27.611Z,20.00
2017-04-13T03:52:28.630Z,23.00
2017-04-13T03:53:29.398Z,25.00
2017-04-13T03:54:30.167Z,22.00
2017-04-13T03:55:30.935Z,24.00
2017-04-13T03:56:31.702Z,23.00
2017-04-13T03:57:32.719Z,24.00
2017-04-13T03:58:33.485Z,24.00
2017-04-13T03:59:34.254Z,26.00
2017-04-13T04:00:35.019Z,22.00
2017-04-13T04:01:35.785Z,23.00
2017-04-13T04:02:36.802Z,23.00
2017-04-13T04:03:37.573Z,25.00
2017-04-13T04:04:38.344Z,23.00
2017-04-13T04:05:39.112Z,25.00
2017-04-13T04:06:39.881Z,25.00
2017-04-13T04:07:40.900Z,25.00
2017-04-13T04:08:41.664Z,22.00
2017-04-13T04:09:42.432Z,23.00
2017-04-13T04:10:43.215Z,26.00
2017-04-13T04:11:43.981Z,24.00
2017-04-13T04:12:45.000Z,28.00
2017-04-13T04:13:45.770Z,25.00
2017-04-13T04:14:46.538Z,21.00
2017-04-13T04:15:47.305Z,23.00
2017-04-13T04:16:48.072Z,24.00
2017-04-13T04:17:49.092Z,25.00
2017-04-13T04:18:49.861Z,24.00
2017-04-13T04:19:50.630Z,29.00
2017-04-13T04:20:51.400Z,25.00
2017-04-13T04:21:52.171Z,25.00
2017-04-13T04:22:53.192Z,25.00
2017-04-13T04:23:53.958Z,22.00
2017-04-13T04:24:54.725Z,23.00
2017-04-13T04:25:55.497Z,26.00
2017-04-13T04:26:56.263Z,26.00
2017-04-13T04:27:57.283Z,28.00
2017-04-13T04:28:58.052Z,24.00
2017-04-13T04:29:58.825Z,21.00
2017-04-13T04:30:59.595Z,23.00
2017-04-13T04:32:00.358Z,28.00
2017-04-13T04:33:01.381Z,24.00
2017-04-13T04:34:02.152Z,24.00
2017-04-13T04:35:02.922Z,23.00
2017-04-13T04:36:03.693Z,26.00
2017-04-13T04:37:04.460Z,25.00
2017-04-13T04:38:05.484Z,26.00
2017-04-13T04:39:06.254Z,26.00
2017-04-13T04:40:07.025Z,27.00
2017-04-13T04:41:07.796Z,26.00
2017-04-13T04:42:08.566Z,28.00
2017-04-13T04:43:09.769Z,28.00
2017-04-13T04:44:10.539Z,27.00
2017-04-13T04:45:11.310Z,32.00
2017-04-13T04:46:12.081Z,24.00
2017-04-13T04:47:12.852Z,24.00
2017-04-13T04:48:13.872Z,25.00
2017-04-13T04:49:14.647Z,32.00
2017-04-13T04:50:15.414Z,25.00
2017-04-13T04:51:16.182Z,29.00
2017-04-13T04:52:16.950Z,28.00
2017-04-13T04:53:17.971Z,31.00
2017-04-13T04:54:18.742Z,31.00
2017-04-13T04:55:19.531Z,27.00
2017-04-13T04:56:20.306Z,29.00
2017-04-13T04:57:21.073Z,29.00
2017-04-13T04:58:22.097Z,32.00
2017-04-13T04:59:22.870Z,33.00
2017-04-13T05:00:23.642Z,31.00
2017-04-13T05:01:24.415Z,31.00
2017-04-13T05:02:25.186Z,27.00
2017-04-13T05:03:26.209Z,29.00
2017-04-13T05:04:26.979Z,30.00
2017-04-13T05:05:27.751Z,28.00
2017-04-13T05:06:28.521Z,32.00
2017-04-13T05:07:29.297Z,33.00
2017-04-13T05:08:30.319Z,33.00
2017-04-13T05:09:31.088Z,25.00
2017-04-13T05:10:31.861Z,32.00
2017-04-13T05:11:32.630Z,32.00
2017-04-13T05:12:33.464Z,27.00
2017-04-13T05:13:34.492Z,31.00
2017-04-13T05:14:35.262Z,29.00
2017-04-13T05:15:36.048Z,31.00
2017-04-13T05:16:36.832Z,29.00
2017-04-13T05:17:37.604Z,30.00
2017-04-13T05:18:38.626Z,25.00
2017-04-13T05:19:39.397Z,32.00
2017-04-13T05:20:40.266Z,28.00
2017-04-13T05:21:41.036Z,30.00
2017-04-13T05:22:41.810Z,32.00
2017-04-13T05:23:42.834Z,33.00
2017-04-13T05:24:43.609Z,26.00
2017-04-13T05:25:44.411Z,27.00
2017-04-13T05:26:45.199Z,27.00
2017-04-13T05:27:45.972Z,26.00
2017-04-13T05:28:47.059Z,26.00
2017-04-13T05:29:47.905Z,24.00
2017-04-13T05:30:48.701Z,28.00
2017-04-13T05:31:49.470Z,26.00
2017-04-13T05:32:50.241Z,26.00
2017-04-13T05:34:55.651Z,23.00
2017-04-13T05:35:56.504Z,26.00
2017-04-13T05:36:57.273Z,21.00
2017-04-13T05:37:58.062Z,24.00
2017-04-13T05:38:59.154Z,23.00
2017-04-13T05:39:59.992Z,25.00
2017-04-13T05:41:00.842Z,23.00
2017-04-13T05:42:01.611Z,22.00
2017-04-13T05:43:02.434Z,20.00
2017-04-13T05:44:04.366Z,25.00
2017-04-13T05:45:05.136Z,20.00
2017-04-13T05:46:05.909Z,20.00
2017-04-13T05:47:06.679Z,24.00
2017-04-13T05:48:07.451Z,20.00
2017-04-13T05:49:08.513Z,18.00
2017-04-13T05:50:09.275Z,19.00
2017-04-13T05:51:10.046Z,19.00
2017-04-13T05:52:10.897Z,18.00
2017-04-13T05:53:11.692Z,23.00
2017-04-13T05:54:12.714Z,20.00
2017-04-13T05:55:13.635Z,22.00
2017-04-13T05:56:15.385Z,20.00
2017-04-13T05:57:16.156Z,22.00
2017-04-13T05:58:16.926Z,21.00
2017-04-13T05:59:17.950Z,18.00
2017-04-13T06:00:18.723Z,19.00
2017-04-13T06:01:19.493Z,19.00
2017-04-13T06:02:20.267Z,22.00
2017-04-13T06:03:21.155Z,20.00
2017-04-13T06:04:22.202Z,20.00
2017-04-13T06:05:23.026Z,19.00
2017-04-13T06:06:23.787Z,22.00
2017-04-13T06:07:24.560Z,18.00
2017-04-13T06:08:25.401Z,15.00
2017-04-13T06:09:27.343Z,16.00
2017-04-13T06:10:28.116Z,20.00
2017-04-13T06:11:28.892Z,20.00
2017-04-13T06:12:29.680Z,16.00
2017-04-13T06:13:30.470Z,16.00
2017-04-13T06:14:31.488Z,18.00
2017-04-13T06:15:32.261Z,17.00
2017-04-13T06:16:33.034Z,18.00
2017-04-13T06:17:33.809Z,15.00
2017-04-13T06:18:34.586Z,16.00
2017-04-13T06:19:35.612Z,14.00
2017-04-13T06:20:36.391Z,16.00
2017-04-13T06:21:37.285Z,16.00
2017-04-13T06:22:38.071Z,15.00
2017-04-13T06:23:39.173Z,17.00
2017-04-13T06:24:40.200Z,15.00
2017-04-13T06:25:40.975Z,15.00
2017-04-13T06:26:41.778Z,14.00
2017-04-13T06:27:43.482Z,15.00
2017-04-13T06:28:44.257Z,13.00
2017-04-13T06:29:45.279Z,15.00
2017-04-13T06:30:46.059Z,10.00
2017-04-13T06:31:46.835Z,12.00
2017-04-13T06:32:47.612Z,10.00
2017-04-13T06:33:48.385Z,13.00
2017-04-13T06:34:49.408Z,14.00
2017-04-13T06:35:50.179Z,12.00
2017-04-13T06:36:50.955Z,11.00
2017-04-13T06:37:51.866Z,15.00
2017-04-13T06:38:52.666Z,15.00
2017-04-13T06:39:53.825Z,11.00
2017-04-13T06:40:54.965Z,14.00
2017-04-13T06:41:56.675Z,12.00
2017-04-13T06:42:57.457Z,11.00
2017-04-13T06:43:58.226Z,13.00
2017-04-13T06:44:59.248Z,12.00
2017-04-13T06:46:00.025Z,11.00
2017-04-13T06:47:00.797Z,10.00
2017-04-13T06:48:01.571Z,12.00
2017-04-13T06:49:02.348Z,12.00
2017-04-13T06:50:03.372Z,8.00
2017-04-13T06:51:04.149Z,7.00
2017-04-13T06:52:04.921Z,11.00
2017-04-13T06:53:05.698Z,11.00
2017-04-13T06:54:06.474Z,11.00
2017-04-13T06:55:07.498Z,10.00
2017-04-13T06:56:08.274Z,10.00
2017-04-13T06:57:09.050Z,9.00
2017-04-13T06:58:09.825Z,10.00
2017-04-13T06:59:10.602Z,10.00
2017-04-13T07:00:11.625Z,9.00
2017-04-13T07:01:12.401Z,10.00
2017-04-13T07:02:13.181Z,10.00
2017-04-13T07:03:13.953Z,9.00
2017-04-13T07:04:14.728Z,12.00
2017-04-13T07:05:15.752Z,8.00
2017-04-13T07:06:16.526Z,8.00
2017-04-13T07:07:17.298Z,9.00
2017-04-13T07:08:18.257Z,8.00
2017-04-13T07:09:19.033Z,9.00
2017-04-13T07:10:20.056Z,9.00
2017-04-13T07:11:20.833Z,9.00
2017-04-13T07:12:21.603Z,9.00
2017-04-13T07:13:22.379Z,8.00
2017-04-13T07:14:23.152Z,10.00
2017-04-13T07:15:24.176Z,9.00
2017-04-13T07:16:24.952Z,10.00
2017-04-13T07:17:25.726Z,10.00
2017-04-13T07:18:26.500Z,9.00
2017-04-13T07:19:27.278Z,10.00
2017-04-13T07:20:28.304Z,9.00
2017-04-13T07:21:29.079Z,15.00
2017-04-13T07:22:29.858Z,10.00
2017-04-13T07:23:30.633Z,9.00
2017-04-13T07:24:31.409Z,8.00
2017-04-13T07:25:32.429Z,8.00
2017-04-13T07:26:33.205Z,10.00
2017-04-13T07:27:33.979Z,8.00
2017-04-13T07:28:34.756Z,8.00
2017-04-13T07:29:35.528Z,8.00
2017-04-13T07:30:36.556Z,7.00
2017-04-13T07:31:37.327Z,9.00
2017-04-13T07:32:38.104Z,8.00
2017-04-13T07:33:38.880Z,8.00
2017-04-13T07:34:39.657Z,6.00
2017-04-13T07:35:40.678Z,8.00
2017-04-13T07:36:41.452Z,8.00
2017-04-13T07:37:42.228Z,11.00
2017-04-13T07:38:43.003Z,7.00
2017-04-13T07:39:43.778Z,7.00
2017-04-13T07:40:44.802Z,7.00
2017-04-13T07:41:45.580Z,9.00
2017-04-13T07:42:46.357Z,8.00
2017-04-13T07:43:47.134Z,8.00
2017-04-13T07:44:47.908Z,9.00
2017-04-13T07:45:48.931Z,10.00
2017-04-13T07:46:49.705Z,9.00
2017-04-13T07:47:50.479Z,7.00
2017-04-13T07:48:51.252Z,8.00
2017-04-13T07:49:52.025Z,9.00
2017-04-13T07:50:53.055Z,9.00
2017-04-13T07:51:53.827Z,8.00
2017-04-13T07:52:54.602Z,7.00
2017-04-13T07:53:55.374Z,7.00
2017-04-13T07:54:56.150Z,8.00
2017-04-13T07:55:57.176Z,8.00
2017-04-13T07:56:57.948Z,8.00
2017-04-13T07:57:58.724Z,9.00
2017-04-13T07:58:59.500Z,9.00
2017-04-13T08:00:00.275Z,6.00
2017-04-13T08:01:01.302Z,7.00
2017-04-13T08:02:02.076Z,9.00
2017-04-13T08:03:02.942Z,7.00
2017-04-13T08:04:03.718Z,9.00
2017-04-13T08:05:04.489Z,9.00
2017-04-13T08:06:05.518Z,8.00
2017-04-13T08:07:06.293Z,8.00
2017-04-13T08:08:07.070Z,7.00
2017-04-13T08:09:07.845Z,7.00
2017-04-13T08:10:08.619Z,6.00
2017-04-13T08:11:09.647Z,8.00
2017-04-13T08:12:10.421Z,7.00
2017-04-13T08:13:11.196Z,8.00
2017-04-13T08:14:11.970Z,7.00
2017-04-13T08:15:12.745Z,8.00
2017-04-13T08:16:13.774Z,7.00
2017-04-13T08:17:14.551Z,8.00
2017-04-13T08:18:15.328Z,6.00
2017-04-13T08:19:16.103Z,7.00
2017-04-13T08:20:16.879Z,7.00
2017-04-13T08:21:17.908Z,7.00
2017-04-13T08:22:18.685Z,7.00
2017-04-13T08:23:19.462Z,7.00
2017-04-13T08:24:20.240Z,8.00
2017-04-13T08:25:21.014Z,6.00
2017-04-13T08:26:22.045Z,7.00
2017-04-13T08:27:22.825Z,7.00
2017-04-13T08:28:23.599Z,5.00
2017-04-13T08:29:24.380Z,7.00
2017-04-13T08:30:25.151Z,8.00
2017-04-13T08:31:26.180Z,7.00
2017-04-13T08:32:26.954Z,6.00
2017-04-13T08:33:27.735Z,8.00
2017-04-13T08:34:28.516Z,7.00
2017-04-13T08:35:29.484Z,6.00
2017-04-13T08:36:30.510Z,6.00
2017-04-13T08:37:31.290Z,8.00
2017-04-13T08:38:32.062Z,6.00
2017-04-13T08:39:32.843Z,9.00
2017-04-13T08:40:33.675Z,9.00
2017-04-13T08:41:34.832Z,6.00
2017-04-13T08:42:35.614Z,6.00
2017-04-13T08:43:36.393Z,6.00
2017-04-13T08:44:37.172Z,7.00
2017-04-13T08:45:37.955Z,7.00
2017-04-13T08:46:38.980Z,10.00
2017-04-13T08:47:39.760Z,7.00
2017-04-13T08:48:40.539Z,8.00
2017-04-13T08:49:41.318Z,6.00
2017-04-13T08:50:42.098Z,9.00
2017-04-13T08:51:43.130Z,6.00
2017-04-13T08:52:43.913Z,7.00
2017-04-13T08:53:44.693Z,6.00
2017-04-13T08:54:45.475Z,6.00
2017-04-13T08:55:46.255Z,4.00
2017-04-13T08:56:47.289Z,4.00
2017-04-13T08:57:48.068Z,7.00
2017-04-13T08:58:48.978Z,6.00
2017-04-13T08:59:49.785Z,7.00
2017-04-13T09:00:50.564Z,5.00
2017-04-13T09:01:51.597Z,6.00
2017-04-13T09:02:52.376Z,6.00
2017-04-13T09:03:53.155Z,4.00
2017-04-13T09:04:53.937Z,6.00
2017-04-13T09:05:54.682Z,6.00
2017-04-13T09:06:55.714Z,7.00
2017-04-13T09:07:56.594Z,7.00
2017-04-13T09:08:57.397Z,6.00
2017-04-13T09:09:58.175Z,6.00
2017-04-13T09:10:58.956Z,6.00
2017-04-13T09:11:59.985Z,6.00
2017-04-13T09:13:00.765Z,8.00
2017-04-13T09:14:01.546Z,7.00
2017-04-13T09:15:02.326Z,6.00
2017-04-13T09:16:03.104Z,4.00
2017-04-13T09:17:04.132Z,7.00
2017-04-13T09:18:04.910Z,5.00
2017-04-13T09:19:05.692Z,6.00
2017-04-13T09:20:06.472Z,6.00
2017-04-13T09:21:07.252Z,7.00
2017-04-13T09:22:08.284Z,7.00
2017-04-13T09:23:09.059Z,7.00
2017-04-13T09:24:09.839Z,6.00
2017-04-13T09:25:10.618Z,5.00
2017-04-13T09:26:11.399Z,7.00
2017-04-13T09:27:12.432Z,7.00
2017-04-13T09:28:13.208Z,5.00
2017-04-13T09:29:13.994Z,6.00
2017-04-13T09:30:14.788Z,5.00
2017-04-13T09:31:15.666Z,8.00
2017-04-13T09:32:16.691Z,6.00
2017-04-13T09:33:17.571Z,7.00
2017-04-13T09:34:18.336Z,8.00
2017-04-13T09:35:19.114Z,7.00
2017-04-13T09:36:19.894Z,6.00
2017-04-13T09:37:20.919Z,7.00
2017-04-13T09:38:21.701Z,6.00
2017-04-13T09:39:22.477Z,6.00
2017-04-13T09:40:23.257Z,5.00
2017-04-13T09:41:24.043Z,6.00
2017-04-13T09:42:25.067Z,6.00
2017-04-13T09:43:25.842Z,5.00
2017-04-13T09:44:26.618Z,6.00
2017-04-13T09:45:27.396Z,6.00
2017-04-13T09:46:28.174Z,7.00
2017-04-13T09:47:29.202Z,7.00
2017-04-13T09:48:29.979Z,6.00
2017-04-13T09:49:30.759Z,5.00
2017-04-13T09:50:31.539Z,7.00
2017-04-13T09:51:32.314Z,5.00
2017-04-13T09:52:33.343Z,6.00
2017-04-13T09:53:34.123Z,7.00
2017-04-13T09:54:35.085Z,5.00
2017-04-13T09:55:35.862Z,4.00
2017-04-13T09:56:36.639Z,5.00
2017-04-13T09:57:37.663Z,6.00
2017-04-13T09:58:38.441Z,6.00
2017-04-13T09:59:39.219Z,4.00
2017-04-13T10:00:39.996Z,5.00
2017-04-13T10:01:40.773Z,5.00
2017-04-13T10:02:41.797Z,4.00
2017-04-13T10:03:42.575Z,5.00
2017-04-13T10:04:43.353Z,6.00
2017-04-13T10:05:44.133Z,5.00
2017-04-13T10:06:44.908Z,5.00
2017-04-13T10:07:45.933Z,5.00
2017-04-13T10:08:46.713Z,7.00
2017-04-13T10:09:47.489Z,5.00
2017-04-13T10:10:48.265Z,6.00
2017-04-13T10:11:49.044Z,7.00
2017-04-13T10:12:50.066Z,6.00
2017-04-13T10:13:50.843Z,6.00
2017-04-13T10:14:51.620Z,7.00
2017-04-13T10:15:52.400Z,4.00
2017-04-13T10:16:53.175Z,4.00
2017-04-13T10:17:54.203Z,5.00
2017-04-13T10:18:54.980Z,6.00
2017-04-13T10:19:55.760Z,6.00
2017-04-13T10:20:56.534Z,6.00
2017-04-13T10:21:57.314Z,7.00
2017-04-13T10:22:58.342Z,5.00
2017-04-13T10:23:59.118Z,5.00
2017-04-13T10:24:59.892Z,6.00
2017-04-13T10:26:00.670Z,4.00
2017-04-13T10:27:01.446Z,5.00
2017-04-13T10:28:02.474Z,5.00
2017-04-13T10:29:03.254Z,5.00
2017-04-13T10:30:04.030Z,5.00
2017-04-13T10:31:04.808Z,5.00
2017-04-13T10:32:05.589Z,5.00
2017-04-13T10:33:06.618Z,5.00
2017-04-13T10:34:07.397Z,6.00
2017-04-13T10:35:08.172Z,5.00
2017-04-13T10:36:08.953Z,6.00
2017-04-13T10:37:09.731Z,5.00
2017-04-13T10:38:10.759Z,4.00
2017-04-13T10:39:11.534Z,5.00
2017-04-13T10:40:12.497Z,5.00
2017-04-13T10:41:13.272Z,4.00
2017-04-13T10:42:14.048Z,6.00
2017-04-13T10:43:15.073Z,3.00
2017-04-13T10:44:15.851Z,4.00
2017-04-13T10:45:16.624Z,4.00
2017-04-13T10:46:17.399Z,3.00
2017-04-13T10:47:18.177Z,5.00
2017-04-13T10:48:19.205Z,4.00
2017-04-13T10:49:19.982Z,4.00
2017-04-13T10:50:20.755Z,4.00
2017-04-13T10:51:21.531Z,6.00
2017-04-13T10:52:22.303Z,3.00
2017-04-13T10:53:23.335Z,4.00
2017-04-13T10:54:24.110Z,3.00
2017-04-13T10:55:24.888Z,4.00
2017-04-13T10:56:25.666Z,4.00
2017-04-13T10:57:26.445Z,4.00
2017-04-13T10:58:27.471Z,3.00
2017-04-13T10:59:28.251Z,3.00
2017-04-13T11:00:29.030Z,3.00
2017-04-13T11:01:29.829Z,3.00
2017-04-13T11:02:30.617Z,3.00
2017-04-13T11:03:31.648Z,3.00
2017-04-13T11:04:32.424Z,3.00
2017-04-13T11:05:33.199Z,2.00
2017-04-13T11:06:33.975Z,5.00
2017-04-13T11:07:34.755Z,4.00
2017-04-13T11:08:35.783Z,2.00
2017-04-13T11:09:36.558Z,5.00
2017-04-13T11:10:37.337Z,3.00
2017-04-13T11:11:38.108Z,5.00
2017-04-13T11:12:38.883Z,4.00
2017-04-13T11:13:39.906Z,5.00
2017-04-13T11:14:40.683Z,3.00
2017-04-13T11:15:41.456Z,4.00
2017-04-13T11:16:42.228Z,4.00
2017-04-13T11:17:43.004Z,3.00
2017-04-13T11:18:44.026Z,3.00
2017-04-13T11:19:44.798Z,3.00
2017-04-13T11:20:45.576Z,3.00
2017-04-13T11:21:46.349Z,3.00
2017-04-13T11:22:47.121Z,3.00
2017-04-13T11:23:48.144Z,3.00
2017-04-13T11:24:48.918Z,3.00
2017-04-13T11:25:49.695Z,4.00
2017-04-13T11:26:50.466Z,3.00
2017-04-13T11:27:51.277Z,3.00
2017-04-13T11:28:53.220Z,4.00
2017-04-13T11:29:54.002Z,4.00
2017-04-13T11:30:54.767Z,3.00
2017-04-13T11:31:55.545Z,4.00
2017-04-13T11:32:56.317Z,3.00
2017-04-13T11:33:57.339Z,3.00
2017-04-13T11:34:58.115Z,3.00
2017-04-13T11:35:58.889Z,3.00
2017-04-13T11:36:59.662Z,3.00
2017-04-13T11:38:00.438Z,3.00
2017-04-13T11:39:01.459Z,4.00
2017-04-13T11:40:02.233Z,3.00
2017-04-13T11:41:03.003Z,2.00
2017-04-13T11:42:03.777Z,3.00
2017-04-13T11:43:04.550Z,3.00
2017-04-13T11:44:05.574Z,3.00
2017-04-13T11:45:06.347Z,2.00
2017-04-13T11:46:07.122Z,3.00
2017-04-13T11:47:07.892Z,4.00
2017-04-13T11:48:08.666Z,3.00
2017-04-13T11:49:09.690Z,3.00
2017-04-13T11:50:10.464Z,3.00
2017-04-13T11:51:11.235Z,3.00
2017-04-13T11:52:12.010Z,4.00
2017-04-13T11:53:12.785Z,4.00
2017-04-13T11:54:13.809Z,2.00
2017-04-13T11:55:14.589Z,3.00
2017-04-13T11:56:15.362Z,3.00
2017-04-13T11:57:16.140Z,3.00
2017-04-13T11:58:16.915Z,3.00
2017-04-13T11:59:17.943Z,3.00
2017-04-13T12:00:18.722Z,6.00
2017-04-13T12:01:19.501Z,3.00
2017-04-13T12:02:20.270Z,3.00
2017-04-13T12:03:21.046Z,4.00
2017-04-13T12:04:22.076Z,2.00
2017-04-13T12:05:22.854Z,4.00
2017-04-13T12:06:23.632Z,3.00
2017-04-13T12:07:24.405Z,3.00
2017-04-13T12:08:25.179Z,3.00
2017-04-13T12:09:26.208Z,3.00
2017-04-13T12:10:27.031Z,3.00
2017-04-13T12:11:28.725Z,4.00
2017-04-13T12:12:29.501Z,4.00
2017-04-13T12:13:30.280Z,4.00
2017-04-13T12:14:31.307Z,3.00
2017-04-13T12:15:32.089Z,3.00
2017-04-13T12:16:32.870Z,3.00
2017-04-13T12:17:33.652Z,4.00
2017-04-13T12:18:34.431Z,3.00
2017-04-13T12:19:35.467Z,3.00
2017-04-13T12:20:36.245Z,3.00
2017-04-13T12:21:37.029Z,6.00
2017-04-13T12:22:37.810Z,3.00
2017-04-13T12:23:38.591Z,3.00
2017-04-13T12:24:39.624Z,3.00
2017-04-13T12:25:40.407Z,3.00
2017-04-13T12:26:41.203Z,4.00
2017-04-13T12:27:41.987Z,3.00
2017-04-13T12:28:42.791Z,4.00
2017-04-13T12:29:43.834Z,5.00
2017-04-13T12:30:44.617Z,3.00
2017-04-13T12:31:45.592Z,4.00
2017-04-13T12:32:46.373Z,5.00
2017-04-13T12:33:47.162Z,4.00
2017-04-13T12:34:48.280Z,4.00
2017-04-13T12:35:49.105Z,4.00
2017-04-13T12:36:49.919Z,3.00
2017-04-13T12:37:50.702Z,3.00
2017-04-13T12:38:51.482Z,4.00
2017-04-13T12:39:52.510Z,4.00
2017-04-13T12:40:53.291Z,4.00
2017-04-13T12:41:54.071Z,3.00
2017-04-13T12:42:54.862Z,4.00
2017-04-13T12:43:55.634Z,2.00
2017-04-13T12:44:56.665Z,2.00
2017-04-13T12:45:57.478Z,3.00
2017-04-13T12:46:58.279Z,3.00
2017-04-13T12:47:59.057Z,3.00
2017-04-13T12:48:59.916Z,3.00
2017-04-13T12:50:00.945Z,4.00
2017-04-13T12:51:01.717Z,2.00
2017-04-13T12:52:02.497Z,3.00
2017-04-13T12:53:03.279Z,3.00
2017-04-13T12:54:04.055Z,3.00
2017-04-13T12:55:05.348Z,3.00
2017-04-13T12:56:06.159Z,2.00
2017-04-13T12:57:06.931Z,3.00
2017-04-13T12:58:07.748Z,2.00
2017-04-13T12:59:08.522Z,2.00
2017-04-13T13:00:09.549Z,3.00
2017-04-13T13:01:10.330Z,2.00
2017-04-13T13:02:11.189Z,4.00
2017-04-13T13:03:12.025Z,2.00
2017-04-13T13:04:13.044Z,2.00
2017-04-13T13:05:14.074Z,2.00
2017-04-13T13:06:14.855Z,3.00
2017-04-13T13:07:15.631Z,3.00
2017-04-13T13:08:16.411Z,3.00
2017-04-13T13:09:17.192Z,3.00
2017-04-13T13:10:18.225Z,3.00
2017-04-13T13:11:19.003Z,4.00
2017-04-13T13:12:19.787Z,4.00
2017-04-13T13:13:20.564Z,4.00
2017-04-13T13:14:21.354Z,3.00
2017-04-13T13:15:22.376Z,4.00
2017-04-13T13:16:23.158Z,2.00